Time;durP1;ratioP1;P1;durP2;ratioP2;P2;SDS_P1;SDS_P2;PMS_P1;PMS_P2;Temp;Humidity;BMP_temperature;BMP_pressure;BME280_temperature;BME280_humidity;BME280_pressure;Samples;Min_cycle;Max_cycle;Signal;HPM_P1;HPM_P2
2023/01/22 00:01:18;;;;;;;0.10;0.10;;;;;;;;;;7375756;19;20729;-68
2023/01/22 00:03:47;;;;;;;0.10;0.10;;;;;;;;;;7377512;19;20726;-68
2023/01/22 00:06:17;;;;;;;0.10;0.10;;;;;;;;;;7377731;19;20575;-69
2023/01/22 00:08:47;;;;;;;0.10;0.10;;;;;;;;;;7377370;19;20623;-69
2023/01/22 00:11:18;;;;;;;0.20;0.20;;;;;;;;;;7378015;19;20595;-68
2023/01/22 00:13:48;;;;;;;0.10;0.10;;;;;;;;;;7377147;19;20655;-68
2023/01/22 00:16:17;;;;;;;0.10;0.10;;;;;;;;;;7375767;19;20610;-68
2023/01/22 00:18:46;;;;;;;0.10;0.10;;;;;;;;;;7376744;19;20646;-69
2023/01/22 00:21:15;;;;;;;0.10;0.10;;;;;;;;;;7375158;19;20768;-69
2023/01/22 00:23:44;;;;;;;0.10;0.10;;;;;;;;;;7376910;19;20710;-68
2023/01/22 00:26:14;;;;;;;0.10;0.10;;;;;;;;;;7375294;19;20642;-69
2023/01/22 00:28:46;;;;;;;0.10;0.10;;;;;;;;;;7375910;19;20666;-68
2023/01/22 00:31:16;;;;;;;0.10;0.10;;;;;;;;;;7374318;19;20611;-68
2023/01/22 00:33:46;;;;;;;0.10;0.10;;;;;;;;;;7376142;19;20599;-67
2023/01/22 00:36:16;;;;;;;0.10;0.10;;;;;;;;;;7374623;19;20738;-68
2023/01/22 00:38:45;;;;;;;0.10;0.10;;;;;;;;;;7375250;19;21382;-67
2023/01/22 00:41:14;;;;;;;0.10;0.10;;;;;;;;;;7376236;19;20607;-67
2023/01/22 00:43:46;;;;;;;0.10;0.10;;;;;;;;;;7375864;19;20607;-66
2023/01/22 00:46:16;;;;;;;0.10;0.10;;;;;;;;;;7375332;19;20662;-68
2023/01/22 00:48:48;;;;;;;0.10;0.10;;;;;;;;;;7373119;19;20666;-68
2023/01/22 00:51:17;;;;;;;0.10;0.10;;;;;;;;;;7374554;19;21447;-68
2023/01/22 00:53:46;;;;;;;0.10;0.10;;;;;;;;;;7375431;19;20693;-67
2023/01/22 00:56:16;;;;;;;0.10;0.10;;;;;;;;;;7374071;19;20765;-68
2023/01/22 00:58:48;;;;;;;0.10;0.10;;;;;;;;;;7373375;19;20785;-68
2023/01/22 01:01:17;;;;;;;0.10;0.10;;;;;;;;;;7373063;19;20665;-67
2023/01/22 01:03:46;;;;;;;0.10;0.10;;;;;;;;;;7375710;19;20722;-68
2023/01/22 01:06:16;;;;;;;0.10;0.10;;;;;;;;;;7373590;19;20765;-67
2023/01/22 01:08:45;;;;;;;0.10;0.10;;;;;;;;;;7372511;19;20671;-68
2023/01/22 01:11:17;;;;;;;0.10;0.10;;;;;;;;;;7374941;19;20630;-68
2023/01/22 01:13:48;;;;;;;0.10;0.10;;;;;;;;;;7375476;19;20637;-68
2023/01/22 01:16:18;;;;;;;0.10;0.10;;;;;;;;;;7373630;19;20615;-67
2023/01/22 01:18:48;;;;;;;0.10;0.10;;;;;;;;;;7372591;19;20651;-67
2023/01/22 01:21:18;;;;;;;0.10;0.10;;;;;;;;;;7374545;19;20775;-68
2023/01/22 01:23:47;;;;;;;0.20;0.20;;;;;;;;;;7373174;19;20630;-68
2023/01/22 01:26:17;;;;;;;0.10;0.10;;;;;;;;;;7373855;19;20745;-68
2023/01/22 01:28:51;;;;;;;0.10;0.10;;;;;;;;;;7373251;19;20668;-68
2023/01/22 01:31:20;;;;;;;0.10;0.10;;;;;;;;;;7374904;19;20677;-68
2023/01/22 01:33:49;;;;;;;0.10;0.10;;;;;;;;;;7371886;19;20656;-68
2023/01/22 01:36:19;;;;;;;0.10;0.10;;;;;;;;;;7375886;19;20721;-68
2023/01/22 01:38:48;;;;;;;0.10;0.10;;;;;;;;;;7373933;19;20635;-68
2023/01/22 01:41:19;;;;;;;0.10;0.10;;;;;;;;;;7373998;19;20751;-68
2023/01/22 01:44:03;;;;;;;0.10;0.10;;;;;;;;;;7374058;19;20607;-68
2023/01/22 01:46:34;;;;;;;0.10;0.10;;;;;;;;;;7372790;19;20622;-69
2023/01/22 01:49:03;;;;;;;0.10;0.10;;;;;;;;;;7373897;19;20975;-68
2023/01/22 01:51:34;;;;;;;0.10;0.10;;;;;;;;;;7375269;19;20636;-68
2023/01/22 01:54:05;;;;;;;0.10;0.10;;;;;;;;;;7374416;19;20584;-68
2023/01/22 01:56:36;;;;;;;0.10;0.10;;;;;;;;;;7373583;19;20656;-68
2023/01/22 01:59:07;;;;;;;0.10;0.10;;;;;;;;;;7366793;19;20739;-68
2023/01/22 02:01:39;;;;;;;0.10;0.10;;;;;;;;;;7372065;19;20619;-68
2023/01/22 02:04:08;;;;;;;0.10;0.10;;;;;;;;;;7373184;19;20627;-67
2023/01/22 02:06:40;;;;;;;0.10;0.10;;;;;;;;;;7375184;19;20734;-67
2023/01/22 02:09:09;;;;;;;0.10;0.10;;;;;;;;;;7370794;19;20667;-67
2023/01/22 02:11:38;;;;;;;0.10;0.10;;;;;;;;;;7371699;19;20634;-67
2023/01/22 02:14:09;;;;;;;0.10;0.10;;;;;;;;;;7372330;19;20611;-68
2023/01/22 02:16:41;;;;;;;0.10;0.10;;;;;;;;;;7372249;19;20623;-67
2023/01/22 02:19:10;;;;;;;0.10;0.10;;;;;;;;;;7371370;19;20716;-66
2023/01/22 02:21:42;;;;;;;0.10;0.10;;;;;;;;;;7371414;19;20595;-67
2023/01/22 02:24:12;;;;;;;0.10;0.10;;;;;;;;;;7371540;19;20684;-67
2023/01/22 02:26:42;;;;;;;0.10;0.10;;;;;;;;;;7371571;19;20615;-67
2023/01/22 02:29:12;;;;;;;0.10;0.10;;;;;;;;;;7370266;19;20662;-67
2023/01/22 02:31:43;;;;;;;0.10;0.10;;;;;;;;;;7371296;19;20606;-68
2023/01/22 02:34:12;;;;;;;0.10;0.10;;;;;;;;;;7371393;19;20626;-68
2023/01/22 02:36:44;;;;;;;0.10;0.10;;;;;;;;;;7372587;19;20639;-69
2023/01/22 02:39:13;;;;;;;0.10;0.10;;;;;;;;;;7373884;19;20201;-68
2023/01/22 02:41:41;;;;;;;0.10;0.10;;;;;;;;;;7379646;19;20622;-67
2023/01/22 02:44:12;;;;;;;0.10;0.10;;;;;;;;;;7377320;19;20618;-67
2023/01/22 02:46:41;;;;;;;0.10;0.10;;;;;;;;;;7378758;19;20687;-67
2023/01/22 02:49:10;;;;;;;0.10;0.10;;;;;;;;;;7376939;19;20674;-69
2023/01/22 02:51:39;;;;;;;0.10;0.10;;;;;;;;;;7378095;19;20697;-68
2023/01/22 02:54:10;;;;;;;0.10;0.10;;;;;;;;;;7380460;19;20725;-67
2023/01/22 02:56:40;;;;;;;0.10;0.10;;;;;;;;;;7378303;19;21344;-67
2023/01/22 02:59:10;;;;;;;0.10;0.10;;;;;;;;;;7378658;19;20659;-67
2023/01/22 03:01:39;;;;;;;0.10;0.10;;;;;;;;;;7377572;19;20630;-67
2023/01/22 03:04:12;;;;;;;0.10;0.10;;;;;;;;;;7378140;19;20685;-67
2023/01/22 03:06:41;;;;;;;0.10;0.10;;;;;;;;;;7377694;19;20648;-67
2023/01/22 03:09:13;;;;;;;0.10;0.10;;;;;;;;;;7378752;19;20619;-67
2023/01/22 03:11:43;;;;;;;0.10;0.10;;;;;;;;;;7375489;19;20619;-67
2023/01/22 03:22:21;;;;;;;0.10;0.10;;;;;;;;;;7377508;19;20615;-68
2023/01/22 03:24:53;;;;;;;0.10;0.10;;;;;;;;;;7376504;19;20662;-67
2023/01/22 03:27:27;;;;;;;0.10;0.10;;;;;;;;;;7377507;19;20665;-66
2023/01/22 03:29:56;;;;;;;0.10;0.10;;;;;;;;;;7374533;19;20642;-66
2023/01/22 03:32:25;;;;;;;0.10;0.10;;;;;;;;;;7376681;19;20744;-66
2023/01/22 03:34:55;;;;;;;0.10;0.10;;;;;;;;;;7376423;19;20603;-67
2023/01/22 03:37:25;;;;;;;0.20;0.20;;;;;;;;;;7376776;19;20630;-68
2023/01/22 03:39:59;;;;;;;0.07;0.07;;;;;;;;;;7376535;19;21382;-67
2023/01/22 03:42:37;;;;;;;0.10;0.10;;;;;;;;;;7378456;19;20606;-67
2023/01/22 03:45:06;;;;;;;0.10;0.10;;;;;;;;;;7376073;19;20661;-67
2023/01/22 03:47:38;;;;;;;0.10;0.10;;;;;;;;;;7376333;19;20654;-68
2023/01/22 03:50:20;;;;;;;0.10;0.10;;;;;;;;;;7370110;19;20786;-67
2023/01/22 03:52:49;;;;;;;0.10;0.10;;;;;;;;;;7376569;19;20618;-67
2023/01/22 03:55:21;;;;;;;0.10;0.10;;;;;;;;;;7375893;19;20683;-67
2023/01/22 03:57:50;;;;;;;0.10;0.10;;;;;;;;;;7375148;19;20662;-67
2023/01/22 04:00:19;;;;;;;0.10;0.10;;;;;;;;;;7376666;19;20614;-67
2023/01/22 04:02:48;;;;;;;0.10;0.10;;;;;;;;;;7375298;19;21036;-66
2023/01/22 04:05:22;;;;;;;0.10;0.10;;;;;;;;;;7376263;19;20763;-66
2023/01/22 04:07:51;;;;;;;0.10;0.10;;;;;;;;;;7374239;19;21054;-66
2023/01/22 04:10:28;;;;;;;0.10;0.10;;;;;;;;;;7373408;19;21409;-66
2023/01/22 04:12:57;;;;;;;0.03;0.03;;;;;;;;;;7375008;19;20680;-67
2023/01/22 04:15:26;;;;;;;0.10;0.10;;;;;;;;;;7374723;19;20687;-67
2023/01/22 04:17:57;;;;;;;0.10;0.10;;;;;;;;;;7375982;19;20700;-67
2023/01/22 04:20:44;;;;;;;0.10;0.10;;;;;;;;;;7375488;19;20668;-67
2023/01/22 04:23:21;;;;;;;0.10;0.10;;;;;;;;;;7376161;19;20618;-67
2023/01/22 04:25:56;;;;;;;0.10;0.10;;;;;;;;;;7374980;19;20720;-67
2023/01/22 04:28:25;;;;;;;0.10;0.10;;;;;;;;;;7375980;19;20631;-68
2023/01/22 04:30:57;;;;;;;0.10;0.10;;;;;;;;;;7374092;19;20615;-68
2023/01/22 04:33:55;;;;;;;0.10;0.10;;;;;;;;;;7375239;19;20764;-67
2023/01/22 04:36:28;;;;;;;0.10;0.10;;;;;;;;;;7374483;19;20631;-67
2023/01/22 04:38:57;;;;;;;0.10;0.10;;;;;;;;;;7374795;19;20658;-67
2023/01/22 04:41:28;;;;;;;0.10;0.10;;;;;;;;;;7372771;19;20635;-67
2023/01/22 04:43:57;;;;;;;0.10;0.10;;;;;;;;;;7375418;19;21132;-67
2023/01/22 04:46:27;;;;;;;0.10;0.10;;;;;;;;;;7373664;19;20657;-67
2023/01/22 04:48:56;;;;;;;0.10;0.10;;;;;;;;;;7374464;19;20765;-67
2023/01/22 04:51:25;;;;;;;0.10;0.10;;;;;;;;;;7373603;19;20666;-67
2023/01/22 04:53:54;;;;;;;0.10;0.10;;;;;;;;;;7373416;19;21372;-67
2023/01/22 04:56:24;;;;;;;0.10;0.10;;;;;;;;;;7372432;19;20642;-67
2023/01/22 04:58:55;;;;;;;0.10;0.10;;;;;;;;;;7373025;19;20717;-67
2023/01/22 05:01:24;;;;;;;0.10;0.10;;;;;;;;;;7375168;19;20607;-67
2023/01/22 05:03:54;;;;;;;0.10;0.10;;;;;;;;;;7374296;19;20623;-67
2023/01/22 05:06:22;;;;;;;0.10;0.10;;;;;;;;;;7373972;19;20675;-66
2023/01/22 05:08:51;;;;;;;0.10;0.10;;;;;;;;;;7375280;19;20734;-66
2023/01/22 05:11:20;;;;;;;0.10;0.10;;;;;;;;;;7374073;19;20749;-67
2023/01/22 05:13:57;;;;;;;0.10;0.10;;;;;;;;;;7373246;19;20661;-67
2023/01/22 05:16:26;;;;;;;0.10;0.10;;;;;;;;;;7373182;19;20623;-67
2023/01/22 05:18:55;;;;;;;0.10;0.10;;;;;;;;;;7372302;19;20751;-66
2023/01/22 05:21:24;;;;;;;0.10;0.10;;;;;;;;;;7374775;19;20693;-68
2023/01/22 05:23:53;;;;;;;0.10;0.10;;;;;;;;;;7373655;19;20615;-67
2023/01/22 05:26:22;;;;;;;0.10;0.10;;;;;;;;;;7374265;19;21381;-66
2023/01/22 05:29:00;;;;;;;0.10;0.10;;;;;;;;;;7372509;19;20724;-66
2023/01/22 05:31:52;;;;;;;0.10;0.10;;;;;;;;;;7373780;19;20677;-67
2023/01/22 05:34:42;;;;;;;0.10;0.10;;;;;;;;;;7374086;19;20639;-67
2023/01/22 05:37:13;;;;;;;0.10;0.10;;;;;;;;;;7373811;19;20619;-65
2023/01/22 05:39:42;;;;;;;0.10;0.10;;;;;;;;;;7373599;19;20630;-67
2023/01/22 05:42:16;;;;;;;0.10;0.10;;;;;;;;;;7372988;19;20642;-67
2023/01/22 05:44:50;;;;;;;0.10;0.10;;;;;;;;;;7372690;19;20630;-68
2023/01/22 05:47:22;;;;;;;0.10;0.10;;;;;;;;;;7372603;19;20622;-67
2023/01/22 05:50:09;;;;;;;0.10;0.10;;;;;;;;;;7372379;19;20626;-68
2023/01/22 05:52:37;;;;;;;0.10;0.10;;;;;;;;;;7371764;19;20635;-67
2023/01/22 05:55:07;;;;;;;0.00;0.00;;;;;;;;;;7373420;19;20623;-67
2023/01/22 05:57:42;;;;;;;0.10;0.10;;;;;;;;;;7372317;19;20674;-67
2023/01/22 06:00:16;;;;;;;0.10;0.10;;;;;;;;;;7372643;19;20630;-67
2023/01/22 06:02:56;;;;;;;0.10;0.10;;;;;;;;;;7372611;19;20756;-67
2023/01/22 06:05:25;;;;;;;0.10;0.10;;;;;;;;;;7372780;19;20670;-67
2023/01/22 06:08:02;;;;;;;0.10;0.10;;;;;;;;;;7371371;19;20732;-67
2023/01/22 06:10:38;;;;;;;0.10;0.10;;;;;;;;;;7370205;19;20622;-67
2023/01/22 06:13:07;;;;;;;0.10;0.10;;;;;;;;;;7374889;19;20661;-68
2023/01/22 06:15:38;;;;;;;0.10;0.10;;;;;;;;;;7378794;19;20661;-67
2023/01/22 06:18:22;;;;;;;0.10;0.10;;;;;;;;;;7377600;19;20816;-67
2023/01/22 06:20:51;;;;;;;0.10;0.10;;;;;;;;;;7378981;19;20741;-67
2023/01/22 06:23:21;;;;;;;0.10;0.10;;;;;;;;;;7379635;19;20675;-66
2023/01/22 06:25:54;;;;;;;0.10;0.10;;;;;;;;;;7378775;19;20622;-67
2023/01/22 06:28:23;;;;;;;0.10;0.10;;;;;;;;;;7377461;19;20703;-67
2023/01/22 06:30:57;;;;;;;0.10;0.10;;;;;;;;;;7376741;19;20610;-67
2023/01/22 06:33:26;;;;;;;0.10;0.10;;;;;;;;;;7377974;19;20657;-66
2023/01/22 06:35:55;;;;;;;0.10;0.10;;;;;;;;;;7379158;19;20656;-68
2023/01/22 06:38:26;;;;;;;0.10;0.10;;;;;;;;;;7376874;19;20658;-67
2023/01/22 06:40:55;;;;;;;0.10;0.10;;;;;;;;;;7379448;19;20615;-67
2023/01/22 06:43:24;;;;;;;0.10;0.10;;;;;;;;;;7377901;19;20619;-67
2023/01/22 06:45:56;;;;;;;0.10;0.10;;;;;;;;;;7379501;19;20708;-67
2023/01/22 06:48:43;;;;;;;0.10;0.10;;;;;;;;;;7376819;19;21331;-68
2023/01/22 06:51:11;;;;;;;0.10;0.10;;;;;;;;;;7376543;19;20606;-66
2023/01/22 06:53:41;;;;;;;0.10;0.10;;;;;;;;;;7378464;19;20169;-67
2023/01/22 06:56:10;;;;;;;0.10;0.10;;;;;;;;;;7378531;19;20634;-67
2023/01/22 06:58:39;;;;;;;0.10;0.10;;;;;;;;;;7376287;19;20658;-67
2023/01/22 07:01:11;;;;;;;0.10;0.10;;;;;;;;;;7379921;19;20637;-67
2023/01/22 07:03:41;;;;;;;0.10;0.10;;;;;;;;;;7379766;19;20734;-67
2023/01/22 07:06:10;;;;;;;0.10;0.10;;;;;;;;;;7379839;19;20691;-67
2023/01/22 07:08:39;;;;;;;0.10;0.10;;;;;;;;;;7379177;19;20683;-67
2023/01/22 07:11:08;;;;;;;0.10;0.10;;;;;;;;;;7378218;19;20615;-67
2023/01/22 07:13:37;;;;;;;0.10;0.10;;;;;;;;;;7377394;19;20762;-67
2023/01/22 07:16:06;;;;;;;0.10;0.10;;;;;;;;;;7379227;19;20587;-67
2023/01/22 07:18:38;;;;;;;0.10;0.10;;;;;;;;;;7374971;19;20761;-68
2023/01/22 07:21:07;;;;;;;0.10;0.10;;;;;;;;;;7379675;19;20591;-67
2023/01/22 07:23:36;;;;;;;0.10;0.10;;;;;;;;;;7376381;19;20634;-66
2023/01/22 07:26:05;;;;;;;0.10;0.10;;;;;;;;;;7380582;19;20752;-67
2023/01/22 07:28:34;;;;;;;0.10;0.10;;;;;;;;;;7377643;19;20661;-67
2023/01/22 07:31:04;;;;;;;0.10;0.10;;;;;;;;;;7378074;19;20641;-67
2023/01/22 07:33:33;;;;;;;0.10;0.10;;;;;;;;;;7377243;19;20592;-66
2023/01/22 07:36:04;;;;;;;0.10;0.10;;;;;;;;;;7379962;19;20714;-67
2023/01/22 07:38:33;;;;;;;0.10;0.10;;;;;;;;;;7376167;19;20710;-65
2023/01/22 07:41:03;;;;;;;0.10;0.10;;;;;;;;;;7377945;19;20754;-66
2023/01/22 07:43:32;;;;;;;0.10;0.10;;;;;;;;;;7378416;19;20677;-66
2023/01/22 07:46:04;;;;;;;0.10;0.10;;;;;;;;;;7378094;19;20598;-66
2023/01/22 07:48:33;;;;;;;0.10;0.10;;;;;;;;;;7374595;19;20663;-66
2023/01/22 07:51:06;;;;;;;0.10;0.10;;;;;;;;;;7377373;19;20729;-65
2023/01/22 07:53:35;;;;;;;0.10;0.10;;;;;;;;;;7377648;19;20733;-66
2023/01/22 07:56:04;;;;;;;0.10;0.10;;;;;;;;;;7377895;19;20607;-66
2023/01/22 07:58:33;;;;;;;0.10;0.10;;;;;;;;;;7374522;19;20707;-66
2023/01/22 08:01:02;;;;;;;0.10;0.10;;;;;;;;;;7378476;19;20714;-66
2023/01/22 08:03:32;;;;;;;0.10;0.10;;;;;;;;;;7377261;19;20715;-66
2023/01/22 08:06:04;;;;;;;0.10;0.10;;;;;;;;;;7376294;19;20680;-66
2023/01/22 08:08:33;;;;;;;0.10;0.10;;;;;;;;;;7377429;19;20737;-67
2023/01/22 08:11:01;;;;;;;0.10;0.10;;;;;;;;;;7375897;19;20610;-66
2023/01/22 08:13:30;;;;;;;0.10;0.10;;;;;;;;;;7377852;19;20717;-66
2023/01/22 08:15:59;;;;;;;0.10;0.10;;;;;;;;;;7377093;19;20623;-66
2023/01/22 08:18:28;;;;;;;0.10;0.10;;;;;;;;;;7375101;19;20741;-66
2023/01/22 08:20:57;;;;;;;0.10;0.10;;;;;;;;;;7376710;19;20738;-66
2023/01/22 08:23:28;;;;;;;0.20;0.20;;;;;;;;;;7376192;19;20673;-66
2023/01/22 08:25:59;;;;;;;0.10;0.10;;;;;;;;;;7376361;19;20627;-66
2023/01/22 08:28:28;;;;;;;0.10;0.10;;;;;;;;;;7373685;19;20683;-66
2023/01/22 08:30:59;;;;;;;0.10;0.10;;;;;;;;;;7374324;19;20753;-66
2023/01/22 08:33:29;;;;;;;0.20;0.20;;;;;;;;;;7375845;19;20615;-66
2023/01/22 08:35:57;;;;;;;0.10;0.10;;;;;;;;;;7375708;19;20644;-65
2023/01/22 08:38:29;;;;;;;0.10;0.10;;;;;;;;;;7375112;19;20737;-66
2023/01/22 08:40:58;;;;;;;0.10;0.10;;;;;;;;;;7376910;19;20661;-67
2023/01/22 08:43:28;;;;;;;0.10;0.10;;;;;;;;;;7376558;19;20643;-66
2023/01/22 08:45:57;;;;;;;0.10;0.10;;;;;;;;;;7375929;19;20660;-65
2023/01/22 08:48:26;;;;;;;0.10;0.10;;;;;;;;;;7373105;19;20654;-66
2023/01/22 08:50:55;;;;;;;0.10;0.10;;;;;;;;;;7373865;19;20607;-66
2023/01/22 08:53:24;;;;;;;0.10;0.10;;;;;;;;;;7375488;19;20765;-66
2023/01/22 08:55:55;;;;;;;0.10;0.10;;;;;;;;;;7372679;19;21088;-66
2023/01/22 08:58:26;;;;;;;0.10;0.10;;;;;;;;;;7375028;19;20749;-67
2023/01/22 09:00:56;;;;;;;0.20;0.20;;;;;;;;;;7373066;19;21321;-66
2023/01/22 09:03:24;;;;;;;0.10;0.10;;;;;;;;;;7376672;19;20607;-66
2023/01/22 09:05:53;;;;;;;0.10;0.10;;;;;;;;;;7376429;19;20603;-65
2023/01/22 09:08:22;;;;;;;0.10;0.10;;;;;;;;;;7374729;19;20607;-65
2023/01/22 09:10:51;;;;;;;0.10;0.10;;;;;;;;;;7375118;19;21381;-66
2023/01/22 09:13:23;;;;;;;0.10;0.10;;;;;;;;;;7374078;19;20760;-65
2023/01/22 09:15:52;;;;;;;0.10;0.10;;;;;;;;;;7375103;19;20749;-65
2023/01/22 09:18:20;;;;;;;0.10;0.10;;;;;;;;;;7373184;19;20825;-66
2023/01/22 09:20:49;;;;;;;0.10;0.10;;;;;;;;;;7374308;19;20642;-67
2023/01/22 09:23:18;;;;;;;0.10;0.10;;;;;;;;;;7374630;19;21368;-66
2023/01/22 09:25:47;;;;;;;0.10;0.10;;;;;;;;;;7373955;19;20599;-66
2023/01/22 09:28:16;;;;;;;0.10;0.10;;;;;;;;;;7374783;19;20737;-67
2023/01/22 09:30:47;;;;;;;0.10;0.10;;;;;;;;;;7374975;19;20651;-66
2023/01/22 09:33:16;;;;;;;0.10;0.10;;;;;;;;;;7374658;19;20844;-67
2023/01/22 09:35:45;;;;;;;0.10;0.10;;;;;;;;;;7372944;19;20752;-65
2023/01/22 09:38:14;;;;;;;0.10;0.10;;;;;;;;;;7374633;19;20662;-66
2023/01/22 09:40:45;;;;;;;0.10;0.10;;;;;;;;;;7372389;19;20671;-66
2023/01/22 09:43:22;;;;;;;0.10;0.10;;;;;;;;;;7372932;19;20688;-65
2023/01/22 09:45:54;;;;;;;0.10;0.10;;;;;;;;;;7372486;19;20752;-67
2023/01/22 09:48:24;;;;;;;0.10;0.10;;;;;;;;;;7379690;19;20607;-66
2023/01/22 09:50:53;;;;;;;0.10;0.10;;;;;;;;;;7378991;19;20749;-67
2023/01/22 09:53:22;;;;;;;0.10;0.10;;;;;;;;;;7380349;19;20737;-66
2023/01/22 09:55:54;;;;;;;0.10;0.10;;;;;;;;;;7379982;19;20764;-67
2023/01/22 09:58:24;;;;;;;0.10;0.10;;;;;;;;;;7381282;19;20623;-66
2023/01/22 10:00:57;;;;;;;0.10;0.10;;;;;;;;;;7379531;19;20695;-67
2023/01/22 10:03:28;;;;;;;0.10;0.10;;;;;;;;;;7380604;19;21011;-66
2023/01/22 10:05:59;;;;;;;0.10;0.10;;;;;;;;;;7382856;19;20733;-67
2023/01/22 10:08:31;;;;;;;0.10;0.10;;;;;;;;;;7377805;19;20666;-64
2023/01/22 10:11:00;;;;;;;0.10;0.10;;;;;;;;;;7379962;19;20750;-67
2023/01/22 10:13:31;;;;;;;0.10;0.10;;;;;;;;;;7378637;19;20646;-66
2023/01/22 10:16:03;;;;;;;0.10;0.10;;;;;;;;;;7381726;19;20603;-67
2023/01/22 10:18:35;;;;;;;0.10;0.10;;;;;;;;;;7378671;19;20626;-66
2023/01/22 10:21:06;;;;;;;0.10;0.10;;;;;;;;;;7381523;19;20603;-67
2023/01/22 10:23:36;;;;;;;0.10;0.10;;;;;;;;;;7379319;19;20650;-65
2023/01/22 10:26:07;;;;;;;0.10;0.10;;;;;;;;;;7381134;19;20704;-67
2023/01/22 10:28:36;;;;;;;0.10;0.10;;;;;;;;;;7376915;19;20716;-67
2023/01/22 10:31:07;;;;;;;0.10;0.10;;;;;;;;;;7377645;19;20631;-66
2023/01/22 10:33:43;;;;;;;0.10;0.10;;;;;;;;;;7381529;19;20620;-66
2023/01/22 10:36:15;;;;;;;0.10;0.10;;;;;;;;;;7377462;19;20623;-66
2023/01/22 10:38:44;;;;;;;0.10;0.10;;;;;;;;;;7378040;19;20740;-66
2023/01/22 10:41:19;;;;;;;0.10;0.10;;;;;;;;;;7379410;19;20675;-66
2023/01/22 10:43:48;;;;;;;0.10;0.10;;;;;;;;;;7380914;19;20606;-66
2023/01/22 10:46:22;;;;;;;0.10;0.10;;;;;;;;;;7380901;19;20599;-67
2023/01/22 10:49:00;;;;;;;0.10;0.10;;;;;;;;;;7379684;19;20741;-66
2023/01/22 10:51:31;;;;;;;0.10;0.10;;;;;;;;;;7377403;19;20614;-66
2023/01/22 10:54:00;;;;;;;0.10;0.10;;;;;;;;;;7380328;19;20618;-66
2023/01/22 10:56:31;;;;;;;0.10;0.10;;;;;;;;;;7377246;19;20623;-66
2023/01/22 10:59:00;;;;;;;0.10;0.10;;;;;;;;;;7378434;19;20615;-67
2023/01/22 11:01:34;;;;;;;0.10;0.10;;;;;;;;;;7380267;19;20647;-67
2023/01/22 11:04:13;;;;;;;0.00;0.00;;;;;;;;;;7378369;19;20767;-66
2023/01/22 11:06:43;;;;;;;0.10;0.10;;;;;;;;;;7380299;19;21349;-67
2023/01/22 11:09:16;;;;;;;0.10;0.10;;;;;;;;;;7376246;19;20769;-67
2023/01/22 11:11:47;;;;;;;0.10;0.10;;;;;;;;;;7378309;19;21574;-67
2023/01/22 11:14:19;;;;;;;0.10;0.10;;;;;;;;;;7377453;19;20725;-67
2023/01/22 11:16:53;;;;;;;0.10;0.10;;;;;;;;;;7379063;19;20812;-66
2023/01/22 11:19:23;;;;;;;0.10;0.10;;;;;;;;;;7373803;19;20761;-65
2023/01/22 11:21:53;;;;;;;0.10;0.10;;;;;;;;;;7377216;19;20757;-67
2023/01/22 11:24:25;;;;;;;0.10;0.10;;;;;;;;;;7377320;19;20663;-67
2023/01/22 11:27:11;;;;;;;0.10;0.10;;;;;;;;;;7380322;19;20683;-67
2023/01/22 11:30:00;;;;;;;0.10;0.10;;;;;;;;;;7378088;19;20614;-66
2023/01/22 11:32:44;;;;;;;0.10;0.10;;;;;;;;;;7376317;19;20710;-67
2023/01/22 11:35:16;;;;;;;0.10;0.10;;;;;;;;;;7378207;19;20586;-66
2023/01/22 11:37:50;;;;;;;0.10;0.10;;;;;;;;;;7376833;19;20725;-65
2023/01/22 11:40:23;;;;;;;0.10;0.10;;;;;;;;;;7375621;19;20630;-66
2023/01/22 11:43:01;;;;;;;0.10;0.10;;;;;;;;;;7376461;19;20619;-66
2023/01/22 11:45:34;;;;;;;0.10;0.10;;;;;;;;;;7370083;19;20676;-66
2023/01/22 11:48:13;;;;;;;0.10;0.10;;;;;;;;;;7373510;19;20730;-67
2023/01/22 11:50:45;;;;;;;0.10;0.10;;;;;;;;;;7376345;19;20670;-66
2023/01/22 11:53:23;;;;;;;0.10;0.10;;;;;;;;;;7373890;19;20607;-66
2023/01/22 11:55:58;;;;;;;0.10;0.10;;;;;;;;;;7377258;19;20643;-66
2023/01/22 11:58:33;;;;;;;0.10;0.10;;;;;;;;;;7375964;19;20756;-66
2023/01/22 12:01:10;;;;;;;0.10;0.10;;;;;;;;;;7378206;19;20713;-66
2023/01/22 12:04:06;;;;;;;0.10;0.10;;;;;;;;;;7376540;19;20610;-66
2023/01/22 12:06:45;;;;;;;0.10;0.10;;;;;;;;;;7377105;19;20678;-66
2023/01/22 12:09:18;;;;;;;0.10;0.10;;;;;;;;;;7374387;19;20696;-66
2023/01/22 12:11:57;;;;;;;0.10;0.10;;;;;;;;;;7372210;19;20630;-65
2023/01/22 12:14:31;;;;;;;0.10;0.10;;;;;;;;;;7374350;19;20630;-66
2023/01/22 12:17:02;;;;;;;0.10;0.10;;;;;;;;;;7376728;19;21086;-66
2023/01/22 12:19:49;;;;;;;0.10;0.10;;;;;;;;;;7374677;19;20769;-67
2023/01/22 12:22:27;;;;;;;0.10;0.10;;;;;;;;;;7376310;19;20642;-65
2023/01/22 12:24:58;;;;;;;0.10;0.10;;;;;;;;;;7375731;19;20623;-66
2023/01/22 12:27:29;;;;;;;0.00;0.00;;;;;;;;;;7377277;19;20623;-67
2023/01/22 12:30:02;;;;;;;0.10;0.10;;;;;;;;;;7375633;19;20741;-66
2023/01/22 12:32:31;;;;;;;0.10;0.10;;;;;;;;;;7374742;19;20691;-67
2023/01/22 12:35:03;;;;;;;0.10;0.10;;;;;;;;;;7377357;19;20643;-67
2023/01/22 12:37:38;;;;;;;0.10;0.10;;;;;;;;;;7374437;19;20670;-64
2023/01/22 12:40:18;;;;;;;0.10;0.10;;;;;;;;;;7375905;19;20641;-66
2023/01/22 12:42:51;;;;;;;0.10;0.10;;;;;;;;;;7374282;19;20699;-67
2023/01/22 12:45:23;;;;;;;0.10;0.10;;;;;;;;;;7376517;19;21223;-66
2023/01/22 12:47:54;;;;;;;0.10;0.10;;;;;;;;;;7373680;19;20809;-67
2023/01/22 12:50:24;;;;;;;0.10;0.10;;;;;;;;;;7377357;19;21385;-65
2023/01/22 12:53:06;;;;;;;0.10;0.10;;;;;;;;;;7373625;19;20763;-67
2023/01/22 12:55:36;;;;;;;0.10;0.10;;;;;;;;;;7374102;19;20737;-66
2023/01/22 12:58:06;;;;;;;0.10;0.10;;;;;;;;;;7375458;19;20608;-66
2023/01/22 13:00:37;;;;;;;0.10;0.10;;;;;;;;;;7375100;19;20719;-67
2023/01/22 13:03:23;;;;;;;0.10;0.10;;;;;;;;;;7370251;19;20661;-66
2023/01/22 13:05:52;;;;;;;0.10;0.10;;;;;;;;;;7372167;19;20610;-67
2023/01/22 13:08:37;;;;;;;0.10;0.10;;;;;;;;;;7369183;19;20741;-66
2023/01/22 13:11:08;;;;;;;0.10;0.10;;;;;;;;;;7371434;19;20599;-66
2023/01/22 13:13:41;;;;;;;0.10;0.10;;;;;;;;;;7369711;19;20623;-66
2023/01/22 13:16:22;;;;;;;0.10;0.10;;;;;;;;;;7371771;19;20665;-67
2023/01/22 13:18:52;;;;;;;0.10;0.10;;;;;;;;;;7373630;19;20744;-67
2023/01/22 13:21:26;;;;;;;0.10;0.10;;;;;;;;;;7375208;19;20731;-67
2023/01/22 13:23:59;;;;;;;0.10;0.10;;;;;;;;;;7376177;19;20603;-67
2023/01/22 13:26:30;;;;;;;0.10;0.10;;;;;;;;;;7376830;19;20578;-65
2023/01/22 13:29:00;;;;;;;0.10;0.10;;;;;;;;;;7372405;19;20722;-65
2023/01/22 13:31:29;;;;;;;0.10;0.10;;;;;;;;;;7374273;19;20701;-66
2023/01/22 13:33:59;;;;;;;0.10;0.10;;;;;;;;;;7375023;19;20718;-66
2023/01/22 13:36:28;;;;;;;0.10;0.10;;;;;;;;;;7376112;19;20607;-66
2023/01/22 13:39:01;;;;;;;0.10;0.10;;;;;;;;;;7374404;19;20655;-66
2023/01/22 13:41:31;;;;;;;0.10;0.10;;;;;;;;;;7374929;19;20600;-66
2023/01/22 13:44:00;;;;;;;0.10;0.10;;;;;;;;;;7373534;19;20675;-66
2023/01/22 13:46:30;;;;;;;0.10;0.10;;;;;;;;;;7376780;19;20607;-67
2023/01/22 13:49:06;;;;;;;0.10;0.10;;;;;;;;;;7372015;19;21073;-66
2023/01/22 13:51:36;;;;;;;0.10;0.10;;;;;;;;;;7373611;19;20692;-67
2023/01/22 13:54:08;;;;;;;0.10;0.10;;;;;;;;;;7373318;19;20694;-66
2023/01/22 13:56:36;;;;;;;0.10;0.10;;;;;;;;;;7374839;19;20591;-67
2023/01/22 13:59:10;;;;;;;0.10;0.10;;;;;;;;;;7370885;19;20654;-67
2023/01/22 14:01:39;;;;;;;0.10;0.10;;;;;;;;;;7372486;19;20622;-66
2023/01/22 14:04:09;;;;;;;0.10;0.10;;;;;;;;;;7374735;19;20671;-66
2023/01/22 14:06:46;;;;;;;0.10;0.10;;;;;;;;;;7373787;19;20610;-67
2023/01/22 14:09:26;;;;;;;0.10;0.10;;;;;;;;;;7372368;19;21341;-66
2023/01/22 14:11:55;;;;;;;0.10;0.10;;;;;;;;;;7373082;19;20622;-67
2023/01/22 14:14:24;;;;;;;0.10;0.10;;;;;;;;;;7371502;19;20753;-66
2023/01/22 14:16:53;;;;;;;0.10;0.10;;;;;;;;;;7373588;19;20639;-66
2023/01/22 14:19:22;;;;;;;0.10;0.10;;;;;;;;;;7371982;19;20996;-67
2023/01/22 14:21:51;;;;;;;0.10;0.10;;;;;;;;;;7373844;19;20722;-66
2023/01/22 14:24:24;;;;;;;0.10;0.10;;;;;;;;;;7374600;19;20660;-67
2023/01/22 14:26:53;;;;;;;0.10;0.10;;;;;;;;;;7373209;19;20656;-66
2023/01/22 14:29:21;;;;;;;0.10;0.10;;;;;;;;;;7372278;19;20693;-66
2023/01/22 14:31:50;;;;;;;0.10;0.10;;;;;;;;;;7371647;19;20645;-65
2023/01/22 14:34:19;;;;;;;0.10;0.10;;;;;;;;;;7375972;19;20717;-67
2023/01/22 14:36:48;;;;;;;0.10;0.10;;;;;;;;;;7381853;19;20611;-66
2023/01/22 14:39:17;;;;;;;0.10;0.10;;;;;;;;;;7377607;19;20611;-66
2023/01/22 14:41:51;;;;;;;0.10;0.10;;;;;;;;;;7380384;19;20595;-67
2023/01/22 14:44:20;;;;;;;0.10;0.10;;;;;;;;;;7378691;19;20627;-66
2023/01/22 14:46:49;;;;;;;0.10;0.10;;;;;;;;;;7379500;19;20729;-67
2023/01/22 14:49:18;;;;;;;0.10;0.10;;;;;;;;;;7375954;19;20805;-66
2023/01/22 14:51:47;;;;;;;0.10;0.10;;;;;;;;;;7378429;19;20627;-66
2023/01/22 14:54:16;;;;;;;0.07;0.07;;;;;;;;;;7376854;19;20713;-65
2023/01/22 14:56:44;;;;;;;0.10;0.10;;;;;;;;;;7380330;19;20651;-66
2023/01/22 14:59:16;;;;;;;0.10;0.10;;;;;;;;;;7379330;19;20737;-65
2023/01/22 15:01:45;;;;;;;0.10;0.10;;;;;;;;;;7379311;19;20717;-67
2023/01/22 15:04:14;;;;;;;0.10;0.10;;;;;;;;;;7378127;19;20752;-66
2023/01/22 15:06:42;;;;;;;0.10;0.10;;;;;;;;;;7378772;19;21401;-66
2023/01/22 15:09:12;;;;;;;0.10;0.10;;;;;;;;;;7377952;19;20691;-66
2023/01/22 15:11:41;;;;;;;0.10;0.10;;;;;;;;;;7375795;19;20783;-67
2023/01/22 15:14:10;;;;;;;0.10;0.10;;;;;;;;;;7376840;19;20606;-67
2023/01/22 15:16:41;;;;;;;0.10;0.10;;;;;;;;;;7378695;19;20664;-66